createdAt,value
2018-09-01T00:01:10.534Z,12.47
2018-09-01T00:02:16.750Z,12.40
2018-09-01T00:03:23.074Z,12.36
2018-09-01T00:04:28.900Z,12.35
2018-09-01T00:05:35.212Z,12.42
2018-09-01T00:06:41.551Z,12.50
2018-09-01T00:07:47.871Z,12.53
2018-09-01T00:08:54.677Z,12.54
2018-09-01T00:10:01.012Z,12.49
2018-09-01T00:11:06.863Z,12.42
2018-09-01T00:12:13.168Z,12.40
2018-09-01T00:13:19.492Z,12.39
2018-09-01T00:14:25.808Z,12.34
2018-09-01T00:15:32.133Z,12.40
2018-09-01T00:16:38.962Z,12.50
2018-09-01T00:17:44.779Z,12.48
2018-09-01T00:18:51.593Z,12.47
2018-09-01T00:19:57.912Z,12.43
2018-09-01T00:21:03.742Z,12.43
2018-09-01T00:22:10.071Z,12.41
2018-09-01T00:23:16.389Z,12.39
2018-09-01T00:24:23.214Z,12.33
2018-09-01T00:25:29.042Z,12.31
2018-09-01T00:26:35.366Z,12.31
2018-09-01T00:27:41.687Z,12.32
2018-09-01T00:28:48.004Z,12.31
2018-09-01T00:29:54.327Z,12.28
2018-09-01T00:31:00.648Z,12.26
2018-09-01T00:32:07.459Z,12.27
2018-09-01T00:33:13.295Z,12.31
2018-09-01T00:34:20.105Z,12.25
2018-09-01T00:35:26.417Z,12.19
2018-09-01T00:36:32.256Z,12.18
2018-09-01T00:37:38.581Z,12.17
2018-09-01T00:38:44.883Z,12.17
2018-09-01T00:39:51.211Z,12.17
2018-09-01T00:40:57.530Z,12.11
2018-09-01T00:42:03.846Z,12.07
2018-09-01T00:43:10.675Z,12.09
2018-09-01T00:44:16.490Z,12.14
2018-09-01T00:45:23.314Z,12.23
2018-09-01T00:46:29.142Z,12.22
2018-09-01T00:47:35.943Z,12.16
2018-09-01T00:48:41.763Z,12.14
2018-09-01T00:49:49.091Z,12.08
2018-09-01T00:50:54.893Z,12.06
2018-09-01T00:52:01.217Z,12.02
2018-09-01T00:53:07.052Z,11.97
2018-09-01T00:54:13.858Z,11.97
2018-09-01T00:55:19.695Z,11.95
2018-09-01T00:56:26.488Z,11.84
2018-09-01T00:57:32.313Z,11.76
2018-09-01T00:58:39.132Z,11.76
2018-09-01T00:59:45.447Z,11.74
2018-09-01T01:00:51.259Z,11.76
2018-09-01T01:01:57.666Z,11.78
2018-09-01T01:03:03.892Z,11.77
2018-09-01T01:04:10.200Z,11.77
2018-09-01T01:05:16.511Z,11.79
2018-09-01T01:06:22.829Z,11.77
2018-09-01T01:07:29.151Z,11.78
2018-09-01T01:08:35.954Z,11.76
2018-09-01T01:09:41.760Z,11.73
2018-09-01T01:10:48.059Z,11.73
2018-09-01T01:11:54.870Z,11.70
2018-09-01T01:13:01.272Z,11.70
2018-09-01T01:14:06.996Z,11.67
2018-09-01T01:15:13.308Z,11.65
2018-09-01T01:16:19.621Z,11.73
2018-09-01T01:17:25.917Z,11.79
2018-09-01T01:18:32.234Z,11.87
2018-09-01T01:19:38.533Z,11.90
2018-09-01T01:20:44.844Z,11.86
2018-09-01T01:21:51.163Z,11.86
2018-09-01T01:22:57.477Z,11.87
2018-09-01T01:24:03.764Z,11.87
2018-09-01T01:25:10.067Z,11.85
2018-09-01T01:26:16.387Z,11.84
2018-09-01T01:27:22.679Z,11.85
2018-09-01T01:28:29.504Z,11.83
2018-09-01T01:29:35.795Z,11.87
2018-09-01T01:30:41.615Z,11.84
2018-09-01T01:31:47.925Z,11.79
2018-09-01T01:32:54.234Z,11.87
2018-09-01T01:34:00.530Z,11.92
2018-09-01T01:35:06.861Z,11.98
2018-09-01T01:36:13.644Z,11.95
2018-09-01T01:37:20.959Z,12.01
2018-09-01T01:38:26.262Z,11.96
2018-09-01T01:39:32.099Z,11.90
2018-09-01T01:40:38.396Z,11.90
2018-09-01T01:41:44.693Z,11.96
2018-09-01T01:42:51.019Z,11.91
2018-09-01T01:43:57.304Z,11.82
2018-09-01T01:45:03.617Z,11.73
2018-09-01T01:46:09.915Z,11.70
2018-09-01T01:47:16.729Z,11.69
2018-09-01T01:48:22.535Z,11.76
2018-09-01T01:49:28.885Z,11.77
2018-09-01T01:50:35.144Z,11.69
2018-09-01T01:51:41.460Z,11.62
2018-09-01T01:52:48.249Z,11.58
2018-09-01T01:53:54.061Z,11.57
2018-09-01T01:55:00.358Z,11.56
2018-09-01T01:56:06.669Z,11.56
2018-09-01T01:57:12.958Z,11.65
2018-09-01T01:58:19.279Z,11.66
2018-09-01T01:59:25.581Z,11.63
2018-09-01T02:00:32.374Z,11.68
2018-09-01T02:01:38.190Z,11.72
2018-09-01T02:02:44.484Z,11.68
2018-09-01T02:03:50.785Z,11.65
2018-09-01T02:04:57.080Z,11.68
2018-09-01T02:06:03.395Z,11.74
2018-09-01T02:07:09.698Z,11.75
2018-09-01T02:08:16.500Z,11.76
2018-09-01T02:09:22.299Z,11.74
2018-09-01T02:10:29.093Z,11.68
2018-09-01T02:11:35.389Z,11.65
2018-09-01T02:12:41.205Z,11.69
2018-09-01T02:13:47.518Z,11.71
2018-09-01T02:14:55.303Z,11.66
2018-09-01T02:16:00.115Z,11.64
2018-09-01T02:17:06.420Z,11.62
2018-09-01T02:18:13.283Z,11.62
2018-09-01T02:19:19.056Z,11.63
2018-09-01T02:20:25.314Z,11.63
2018-09-01T02:21:32.123Z,11.63
2018-09-01T02:22:37.925Z,11.64
2018-09-01T02:23:44.242Z,11.69
2018-09-01T02:24:50.527Z,11.68
2018-09-01T02:25:57.332Z,11.66
2018-09-01T02:27:03.644Z,11.60
2018-09-01T02:28:09.936Z,11.55
2018-09-01T02:29:15.746Z,11.49
2018-09-01T02:30:22.032Z,11.45
2018-09-01T02:31:28.331Z,11.57
2018-09-01T02:32:34.637Z,11.59
2018-09-01T02:33:40.940Z,11.55
2018-09-01T02:34:47.234Z,11.47
2018-09-01T02:35:53.538Z,11.43
2018-09-01T02:36:59.825Z,11.47
2018-09-01T02:38:06.136Z,11.62
2018-09-01T02:39:12.437Z,11.60
2018-09-01T02:40:19.270Z,11.63
2018-09-01T02:41:25.031Z,11.63
2018-09-01T02:42:32.304Z,11.70
2018-09-01T02:43:38.135Z,11.67
2018-09-01T02:44:43.933Z,11.59
2018-09-01T02:45:50.234Z,11.57
2018-09-01T02:46:56.521Z,11.53
2018-09-01T02:48:03.317Z,11.43
2018-09-01T02:49:09.126Z,11.37
2018-09-01T02:50:15.415Z,11.33
2018-09-01T02:51:21.715Z,11.28
2018-09-01T02:52:28.502Z,11.26
2018-09-01T02:53:34.314Z,11.28
2018-09-01T02:54:41.109Z,11.35
2018-09-01T02:55:47.401Z,11.36
2018-09-01T02:56:53.197Z,11.34
2018-09-01T02:57:59.983Z,11.31
2018-09-01T02:59:05.789Z,11.31
2018-09-01T03:00:12.584Z,11.30
2018-09-01T03:01:18.383Z,11.36
2018-09-01T03:02:24.680Z,11.37
2018-09-01T03:03:31.459Z,11.31
2018-09-01T03:04:37.278Z,11.27
2018-09-01T03:05:44.045Z,11.27
2018-09-01T03:06:49.853Z,11.33
2018-09-01T03:07:56.155Z,11.37
2018-09-01T03:09:02.444Z,11.40
2018-09-01T03:10:08.737Z,11.41
2018-09-01T03:11:15.028Z,11.38
2018-09-01T03:12:21.812Z,11.38
2018-09-01T03:13:27.622Z,11.38
2018-09-01T03:14:33.960Z,11.35
2018-09-01T03:15:40.209Z,11.35
2018-09-01T03:16:46.505Z,11.35
2018-09-01T03:17:52.801Z,11.35
2018-09-01T03:18:59.602Z,11.29
2018-09-01T03:20:05.396Z,11.22
2018-09-01T03:21:11.681Z,11.16
2018-09-01T03:22:17.981Z,11.15
2018-09-01T03:23:24.277Z,11.21
2018-09-01T03:24:31.070Z,11.26
2018-09-01T03:25:36.862Z,11.34
2018-09-01T03:26:43.653Z,11.43
2018-09-01T03:27:49.445Z,11.43
2018-09-01T03:28:55.748Z,11.42
2018-09-01T03:30:02.542Z,11.41
2018-09-01T03:31:08.334Z,11.42
2018-09-01T03:32:14.635Z,11.44
2018-09-01T03:33:20.927Z,11.46
2018-09-01T03:34:27.228Z,11.47
2018-09-01T03:35:34.014Z,11.50
2018-09-01T03:36:39.807Z,11.53
2018-09-01T03:37:46.108Z,11.58
2018-09-01T03:38:52.399Z,11.62
2018-09-01T03:39:58.703Z,11.66
2018-09-01T03:41:04.991Z,11.64
2018-09-01T03:42:11.299Z,11.60
2018-09-01T03:43:17.601Z,11.53
2018-09-01T03:44:24.101Z,11.47
2018-09-01T03:45:30.692Z,11.40
2018-09-01T03:46:36.503Z,11.35
2018-09-01T03:47:44.289Z,11.30
2018-09-01T03:48:49.596Z,11.23
2018-09-01T03:49:55.905Z,11.26
2018-09-01T03:51:02.198Z,11.25
2018-09-01T03:52:08.010Z,11.23
2018-09-01T03:53:14.305Z,11.25
2018-09-01T03:54:21.092Z,11.34
2018-09-01T03:55:26.888Z,11.33
2018-09-01T03:56:33.283Z,11.33
2018-09-01T03:57:39.977Z,11.35
2018-09-01T03:58:45.783Z,11.37
2018-09-01T03:59:52.088Z,11.37
2018-09-01T04:00:58.373Z,11.28
2018-09-01T04:02:04.670Z,11.31
2018-09-01T04:03:10.969Z,11.32
2018-09-01T04:04:17.247Z,11.36
2018-09-01T04:05:23.553Z,11.34
2018-09-01T04:06:29.844Z,11.35
2018-09-01T04:07:36.122Z,11.38
2018-09-01T04:08:42.927Z,11.34
2018-09-01T04:09:48.725Z,11.33
2018-09-01T04:10:55.512Z,11.42
2018-09-01T04:12:01.790Z,11.53
2018-09-01T04:13:07.598Z,11.61
2018-09-01T04:14:13.900Z,11.60
2018-09-01T04:15:20.206Z,11.49
2018-09-01T04:16:26.476Z,11.44
2018-09-01T04:17:32.774Z,11.39
2018-09-01T04:18:39.560Z,11.38
2018-09-01T04:19:45.374Z,11.33
2018-09-01T04:20:51.657Z,11.36
2018-09-01T04:21:57.947Z,11.36
2018-09-01T04:23:04.735Z,11.41
2018-09-01T04:24:10.524Z,11.35
2018-09-01T04:25:16.833Z,11.32
2018-09-01T04:26:23.144Z,11.26
2018-09-01T04:27:29.419Z,11.26
2018-09-01T04:28:35.704Z,11.19
2018-09-01T04:29:42.494Z,11.10
2018-09-01T04:30:48.306Z,11.10
2018-09-01T04:31:54.581Z,11.07
2018-09-01T04:33:00.865Z,11.02
2018-09-01T04:34:07.649Z,11.02
2018-09-01T04:35:13.466Z,11.03
2018-09-01T04:36:19.735Z,11.03
2018-09-01T04:37:26.539Z,11.04
2018-09-01T04:38:32.325Z,11.08
2018-09-01T04:39:39.111Z,11.07
2018-09-01T04:40:44.905Z,11.02
2018-09-01T04:41:51.293Z,11.02
2018-09-01T04:42:57.488Z,11.02
2018-09-01T04:44:03.766Z,11.01
2018-09-01T04:45:10.079Z,11.00
2018-09-01T04:46:16.574Z,10.94
2018-09-01T04:47:22.628Z,10.92
2018-09-01T04:48:29.413Z,10.90
2018-09-01T04:49:35.205Z,10.90
2018-09-01T04:50:42.001Z,10.98
2018-09-01T04:51:47.784Z,10.99
2018-09-01T04:52:54.081Z,11.04
2018-09-01T04:54:00.371Z,11.05
2018-09-01T04:55:07.145Z,11.04
2018-09-01T04:56:12.943Z,11.08
2018-09-01T04:57:19.229Z,11.16
2018-09-01T04:58:25.512Z,11.18
2018-09-01T04:59:32.297Z,11.16
2018-09-01T05:00:38.096Z,11.11
2018-09-01T05:01:44.880Z,11.14
2018-09-01T05:02:51.274Z,11.15
2018-09-01T05:03:56.975Z,11.14
2018-09-01T05:05:03.743Z,11.23
2018-09-01T05:06:09.551Z,11.26
2018-09-01T05:07:15.831Z,11.30
2018-09-01T05:08:22.127Z,11.33
2018-09-01T05:09:28.918Z,11.29
2018-09-01T05:10:34.732Z,11.25
2018-09-01T05:11:41.005Z,11.10
2018-09-01T05:12:48.295Z,11.02
2018-09-01T05:13:54.078Z,11.00
2018-09-01T05:14:59.879Z,11.08
2018-09-01T05:16:06.167Z,11.16
2018-09-01T05:17:12.456Z,11.15
2018-09-01T05:18:18.747Z,11.18
2018-09-01T05:19:25.056Z,11.17
2018-09-01T05:20:31.337Z,11.15
2018-09-01T05:21:37.629Z,11.11
2018-09-01T05:22:43.911Z,11.10
2018-09-01T05:23:50.720Z,11.05
2018-09-01T05:24:56.515Z,11.00
2018-09-01T05:26:02.805Z,10.95
2018-09-01T05:27:09.099Z,10.93
2018-09-01T05:28:15.386Z,10.91
2018-09-01T05:29:21.688Z,10.92
2018-09-01T05:30:27.999Z,11.02
2018-09-01T05:31:34.759Z,11.05
2018-09-01T05:32:40.569Z,11.02
2018-09-01T05:33:46.857Z,10.97
2018-09-01T05:34:53.161Z,11.03
2018-09-01T05:35:59.487Z,11.05
2018-09-01T05:37:06.223Z,10.99
2018-09-01T05:38:12.036Z,11.02
2018-09-01T05:39:18.820Z,11.10
2018-09-01T05:40:24.621Z,11.17
2018-09-01T05:41:31.407Z,11.28
2018-09-01T05:42:37.699Z,11.32
2018-09-01T05:43:43.522Z,11.34
2018-09-01T05:44:49.799Z,11.39
2018-09-01T05:45:56.113Z,11.45
2018-09-01T05:47:02.419Z,11.44
2018-09-01T05:48:08.702Z,11.43
2018-09-01T05:49:15.496Z,11.42
2018-09-01T05:50:21.293Z,11.47
2018-09-01T05:51:27.607Z,11.45
2018-09-01T05:52:34.393Z,11.42
2018-09-01T05:53:40.704Z,11.48
2018-09-01T05:54:46.501Z,11.52
2018-09-01T05:55:52.811Z,11.50
2018-09-01T05:56:59.105Z,11.48
2018-09-01T05:58:05.416Z,11.46
2018-09-01T05:59:11.709Z,11.45
2018-09-01T06:00:18.021Z,11.48
2018-09-01T06:01:24.321Z,11.51
2018-09-01T06:02:30.627Z,11.56
2018-09-01T06:03:36.934Z,11.59
2018-09-01T06:04:43.734Z,11.65
2018-09-01T06:05:49.592Z,11.66
2018-09-01T06:06:56.338Z,11.69
2018-09-01T06:08:02.694Z,11.73
2018-09-01T06:09:08.463Z,11.73
2018-09-01T06:10:14.762Z,11.76
2018-09-01T06:11:21.090Z,11.78
2018-09-01T06:12:27.876Z,11.86
2018-09-01T06:13:34.727Z,11.94
2018-09-01T06:14:40.009Z,11.97
2018-09-01T06:15:46.823Z,12.02
2018-09-01T06:16:52.631Z,12.05
2018-09-01T06:17:59.492Z,12.08
2018-09-01T06:19:05.288Z,12.11
2018-09-01T06:20:12.079Z,12.14
2018-09-01T06:21:18.040Z,12.19
2018-09-01T06:22:24.709Z,12.24
2018-09-01T06:23:31.087Z,12.27
2018-09-01T06:24:37.861Z,12.26
2018-09-01T06:25:43.192Z,12.26
2018-09-01T06:26:49.981Z,12.28
2018-09-01T06:27:57.306Z,12.24
2018-09-01T06:29:02.153Z,12.26
2018-09-01T06:30:08.471Z,12.27
2018-09-01T06:31:14.786Z,12.32
2018-09-01T06:32:21.105Z,12.35
2018-09-01T06:33:27.422Z,12.38
2018-09-01T06:34:33.771Z,12.42
2018-09-01T06:35:40.073Z,12.46
2018-09-01T06:36:46.398Z,12.47
2018-09-01T06:37:53.308Z,12.50
2018-09-01T06:38:59.043Z,12.51
2018-09-01T06:40:05.367Z,12.53
2018-09-01T06:41:12.004Z,12.54
2018-09-01T06:42:18.014Z,12.58
2018-09-01T06:43:24.337Z,12.59
2018-09-01T06:44:30.677Z,12.58
2018-09-01T06:45:36.993Z,12.60
2018-09-01T06:46:43.333Z,12.63
2018-09-01T06:47:49.660Z,12.68
2018-09-01T06:48:56.006Z,12.74
2018-09-01T06:50:02.819Z,12.77
2018-09-01T06:51:08.662Z,12.79
2018-09-01T06:52:14.985Z,12.84
2018-09-01T06:53:21.320Z,12.92
2018-09-01T06:54:27.663Z,12.95
2018-09-01T06:55:34.490Z,12.97
2018-09-01T06:56:40.337Z,13.00
2018-09-01T06:57:47.279Z,13.03
2018-09-01T06:58:53.008Z,13.07
2018-09-01T06:59:59.354Z,13.14
2018-09-01T07:01:05.702Z,13.22
2018-09-01T07:02:12.039Z,13.27
2018-09-01T07:03:19.867Z,13.32
2018-09-01T07:04:25.279Z,13.39
2018-09-01T07:05:31.589Z,13.42
2018-09-01T07:06:37.439Z,13.48
2018-09-01T07:07:43.821Z,13.53
2018-09-01T07:08:50.683Z,13.58
2018-09-01T07:09:56.957Z,13.63
2018-09-01T07:11:02.813Z,13.65
2018-09-01T07:12:09.277Z,13.66
2018-09-01T07:13:15.529Z,13.74
2018-09-01T07:14:21.871Z,13.84
2018-09-01T07:15:28.226Z,13.90
2018-09-01T07:16:34.582Z,13.92
2018-09-01T07:17:40.932Z,13.93
2018-09-01T07:18:47.295Z,13.97
2018-09-01T07:19:53.658Z,13.98
2018-09-01T07:21:00.005Z,14.03
2018-09-01T07:22:06.876Z,14.07
2018-09-01T07:23:12.729Z,14.08
2018-09-01T07:24:19.109Z,14.12
2018-09-01T07:25:25.663Z,14.16
2018-09-01T07:26:31.849Z,14.22
2018-09-01T07:27:38.694Z,14.21
2018-09-01T07:28:44.576Z,14.20
2018-09-01T07:29:50.938Z,14.22
2018-09-01T07:30:57.575Z,14.28
2018-09-01T07:32:03.681Z,14.34
2018-09-01T07:33:10.046Z,14.38
2018-09-01T07:34:16.614Z,14.41
2018-09-01T07:35:22.796Z,14.45
2018-09-01T07:36:29.679Z,14.44
2018-09-01T07:37:35.552Z,14.43
2018-09-01T07:38:41.931Z,14.49
2018-09-01T07:39:48.314Z,14.55
2018-09-01T07:40:54.698Z,14.62
2018-09-01T07:42:01.101Z,14.66
2018-09-01T07:43:07.938Z,14.75
2018-09-01T07:44:13.827Z,14.85
2018-09-01T07:45:20.712Z,14.85
2018-09-01T07:46:27.091Z,14.82
2018-09-01T07:47:32.976Z,14.84
2018-09-01T07:48:39.365Z,14.88
2018-09-01T07:49:45.749Z,14.87
2018-09-01T07:50:52.137Z,14.89
2018-09-01T07:51:58.527Z,14.94
2018-09-01T07:53:04.907Z,14.99
2018-09-01T07:54:11.312Z,15.05
2018-09-01T07:55:17.674Z,15.13
2018-09-01T07:56:24.129Z,15.24
2018-09-01T07:57:30.475Z,15.28
2018-09-01T07:58:36.860Z,15.32
2018-09-01T07:59:43.244Z,15.36
2018-09-01T08:00:49.647Z,15.40
2018-09-01T08:01:56.547Z,15.41
2018-09-01T08:03:02.448Z,15.43
2018-09-01T08:04:09.331Z,15.44
2018-09-01T08:05:15.736Z,15.44
2018-09-01T08:06:22.142Z,15.48
2018-09-01T08:07:28.108Z,15.48
2018-09-01T08:08:34.462Z,15.45
2018-09-01T08:09:41.366Z,15.49
2018-09-01T08:10:47.276Z,15.51
2018-09-01T08:11:54.038Z,15.50
2018-09-01T08:13:00.119Z,15.55
2018-09-01T08:14:07.184Z,15.65
2018-09-01T08:15:13.963Z,15.76
2018-09-01T08:16:19.392Z,15.79
2018-09-01T08:17:25.821Z,15.91
2018-09-01T08:18:32.277Z,15.98
2018-09-01T08:19:39.280Z,16.02
2018-09-01T08:20:45.114Z,16.00
2018-09-01T08:21:51.547Z,16.04
2018-09-01T08:22:57.988Z,16.03
2018-09-01T08:24:04.915Z,16.05
2018-09-01T08:25:11.347Z,16.11
2018-09-01T08:26:17.300Z,16.17
2018-09-01T08:27:23.759Z,16.14
2018-09-01T08:28:30.194Z,16.15
2018-09-01T08:29:36.631Z,16.18
2018-09-01T08:30:43.095Z,16.29
2018-09-01T08:31:49.552Z,16.21
2018-09-01T08:32:55.984Z,16.25
2018-09-01T08:34:02.452Z,16.28
2018-09-01T08:35:08.899Z,16.29
2018-09-01T08:36:15.360Z,16.36
2018-09-01T08:37:21.815Z,16.44
2018-09-01T08:38:28.261Z,16.43
2018-09-01T08:39:34.722Z,16.45
2018-09-01T08:40:41.280Z,16.48
2018-09-01T08:41:47.634Z,16.44
2018-09-01T08:42:54.100Z,16.48
2018-09-01T08:44:00.560Z,16.60
2018-09-01T08:45:07.027Z,16.59
2018-09-01T08:46:13.482Z,16.61
2018-09-01T08:47:19.952Z,16.58
2018-09-01T08:48:26.921Z,16.64
2018-09-01T08:49:32.898Z,16.76
2018-09-01T08:50:39.356Z,16.80
2018-09-01T08:51:45.836Z,16.73
2018-09-01T08:52:52.303Z,16.70
2018-09-01T08:53:59.289Z,16.65
2018-09-01T08:55:05.253Z,16.79
2018-09-01T08:56:11.741Z,16.90
2018-09-01T08:57:18.710Z,17.01
2018-09-01T08:58:24.702Z,17.10
2018-09-01T08:59:31.270Z,17.15
2018-09-01T09:00:37.652Z,17.21
2018-09-01T09:01:44.638Z,17.18
2018-09-01T09:02:50.631Z,17.15
2018-09-01T09:03:57.106Z,17.15
2018-09-01T09:05:03.597Z,17.22
2018-09-01T09:06:10.093Z,17.23
2018-09-01T09:07:16.588Z,17.26
2018-09-01T09:08:24.577Z,17.27
2018-09-01T09:09:29.580Z,17.32
2018-09-01T09:10:36.569Z,17.44
2018-09-01T09:11:43.124Z,17.44
2018-09-01T09:12:49.567Z,17.48
2018-09-01T09:13:55.571Z,17.62
2018-09-01T09:15:02.075Z,17.78
2018-09-01T09:16:09.581Z,17.87
2018-09-01T09:17:15.084Z,17.96
2018-09-01T09:18:21.592Z,17.98
2018-09-01T09:19:28.104Z,18.06
2018-09-01T09:20:34.604Z,18.10
2018-09-01T09:21:41.125Z,18.10
2018-09-01T09:22:48.643Z,18.09
2018-09-01T09:23:54.153Z,18.07
2018-09-01T09:25:00.687Z,18.03
2018-09-01T09:26:07.204Z,18.07
2018-09-01T09:27:14.719Z,18.15
2018-09-01T09:28:20.245Z,18.11
2018-09-01T09:29:26.774Z,18.07
2018-09-01T09:30:33.279Z,18.13
2018-09-01T09:31:39.809Z,18.20
2018-09-01T09:32:46.340Z,18.31
2018-09-01T09:33:53.365Z,18.40
2018-09-01T09:34:59.399Z,18.53
2018-09-01T09:36:06.449Z,18.56
2018-09-01T09:37:12.497Z,18.68
2018-09-01T09:38:19.028Z,18.75
2018-09-01T09:39:25.546Z,18.72
2018-09-01T09:40:32.142Z,18.71
2018-09-01T09:41:38.637Z,18.65
2018-09-01T09:42:45.344Z,18.65
2018-09-01T09:43:51.714Z,18.68
2018-09-01T09:44:58.263Z,18.83
2018-09-01T09:46:04.800Z,18.93
2018-09-01T09:47:11.363Z,19.09
2018-09-01T09:48:17.940Z,19.18
2018-09-01T09:49:24.484Z,19.14
2018-09-01T09:50:31.077Z,19.07
2018-09-01T09:51:37.600Z,18.90
2018-09-01T09:52:44.225Z,18.85
2018-09-01T09:53:50.771Z,18.88
2018-09-01T09:54:57.394Z,18.95
2018-09-01T09:56:04.280Z,19.00
2018-09-01T09:57:10.447Z,18.98
2018-09-01T09:58:17.038Z,19.01
2018-09-01T09:59:24.095Z,19.07
2018-09-01T10:00:30.163Z,19.14
2018-09-01T10:01:37.236Z,19.22
2018-09-01T10:02:43.323Z,19.24
2018-09-01T10:03:49.896Z,19.33
2018-09-01T10:04:56.510Z,19.43
2018-09-01T10:06:03.267Z,19.48
2018-09-01T10:07:09.655Z,19.48
2018-09-01T10:08:16.244Z,19.48
2018-09-01T10:09:22.837Z,19.57
2018-09-01T10:10:29.419Z,19.57
2018-09-01T10:11:36.504Z,19.60
2018-09-01T10:12:42.597Z,19.72
2018-09-01T10:13:49.229Z,19.88
2018-09-01T10:14:55.800Z,20.09
2018-09-01T10:16:02.396Z,20.24
2018-09-01T10:17:09.008Z,20.12
2018-09-01T10:18:15.613Z,19.99
2018-09-01T10:19:22.723Z,19.81
2018-09-01T10:20:28.917Z,19.81
2018-09-01T10:21:35.457Z,20.01
2018-09-01T10:22:42.065Z,20.35
2018-09-01T10:23:49.194Z,20.48
2018-09-01T10:24:55.324Z,20.34
2018-09-01T10:26:01.940Z,20.30
2018-09-01T10:27:08.613Z,20.33
2018-09-01T10:28:15.198Z,20.44
2018-09-01T10:29:21.829Z,20.47
2018-09-01T10:30:28.463Z,20.50
2018-09-01T10:31:35.282Z,20.66
2018-09-01T10:32:41.719Z,20.76
2018-09-01T10:33:49.377Z,20.77
2018-09-01T10:34:55.021Z,20.75
2018-09-01T10:36:01.675Z,20.94
2018-09-01T10:37:08.822Z,21.13
2018-09-01T10:38:15.494Z,21.20
2018-09-01T10:39:21.666Z,21.11
2018-09-01T10:40:28.351Z,20.98
2018-09-01T10:41:35.522Z,20.72
2018-09-01T10:42:41.711Z,20.59
2018-09-01T10:43:48.901Z,20.33
2018-09-01T10:44:55.083Z,20.11
2018-09-01T10:46:01.767Z,19.99
2018-09-01T10:47:08.947Z,19.92
2018-09-01T10:48:15.148Z,19.89
2018-09-01T10:49:21.825Z,19.84
2018-09-01T10:50:28.985Z,19.81
2018-09-01T10:51:35.146Z,19.86
2018-09-01T10:52:41.801Z,19.69
2018-09-01T10:53:48.469Z,19.60
2018-09-01T10:54:55.620Z,19.57
2018-09-01T10:56:01.751Z,19.64
2018-09-01T10:57:08.414Z,19.74
2018-09-01T10:58:15.046Z,19.77
2018-09-01T10:59:21.752Z,19.93
2018-09-01T11:00:28.335Z,20.00
2018-09-01T11:01:34.967Z,19.98
2018-09-01T11:02:41.636Z,19.79
2018-09-01T11:03:48.750Z,19.76
2018-09-01T11:04:54.891Z,19.80
2018-09-01T11:06:01.527Z,19.94
2018-09-01T11:07:08.279Z,20.20
2018-09-01T11:08:14.820Z,20.40
2018-09-01T11:09:21.467Z,20.55
2018-09-01T11:10:28.112Z,20.77
2018-09-01T11:11:34.752Z,20.77
2018-09-01T11:12:41.413Z,20.76
2018-09-01T11:13:48.086Z,20.70
2018-09-01T11:14:54.727Z,20.79
2018-09-01T11:16:01.373Z,20.88
2018-09-01T11:17:08.032Z,21.00
2018-09-01T11:18:14.696Z,21.10
2018-09-01T11:19:21.385Z,21.05
2018-09-01T11:20:28.054Z,21.01
2018-09-01T11:21:34.795Z,20.99
2018-09-01T11:22:41.582Z,21.13
2018-09-01T11:23:48.419Z,21.03
2018-09-01T11:24:55.317Z,20.99
2018-09-01T11:26:02.294Z,21.16
2018-09-01T11:27:09.248Z,21.08
2018-09-01T11:28:16.260Z,20.98
2018-09-01T11:29:23.292Z,20.93
2018-09-01T11:30:30.375Z,20.99
2018-09-01T11:31:37.431Z,21.07
2018-09-01T11:32:45.566Z,21.41
2018-09-01T11:33:51.731Z,21.68
2018-09-01T11:34:58.940Z,21.63
2018-09-01T11:36:06.660Z,21.73
2018-09-01T11:37:13.373Z,21.77
2018-09-01T11:38:20.537Z,21.78
2018-09-01T11:39:27.727Z,21.68
2018-09-01T11:40:34.956Z,21.51
2018-09-01T11:41:42.275Z,21.50
2018-09-01T11:42:49.564Z,21.37
2018-09-01T11:43:56.725Z,21.33
2018-09-01T11:45:04.016Z,21.15
2018-09-01T11:46:11.319Z,21.12
2018-09-01T11:47:18.650Z,21.30
2018-09-01T11:48:25.984Z,21.36
2018-09-01T11:49:33.332Z,21.38
2018-09-01T11:50:40.686Z,21.38
2018-09-01T11:51:48.055Z,21.26
2018-09-01T11:52:55.911Z,21.17
2018-09-01T11:54:03.804Z,21.18
2018-09-01T11:55:10.225Z,21.38
2018-09-01T11:56:17.623Z,21.60
2018-09-01T11:57:25.041Z,21.70
2018-09-01T11:58:32.487Z,21.79
2018-09-01T11:59:40.415Z,21.81
2018-09-01T12:00:47.345Z,21.49
2018-09-01T12:01:54.794Z,21.28
2018-09-01T12:03:02.257Z,21.31
2018-09-01T12:04:09.707Z,21.10
2018-09-01T12:05:17.175Z,20.94
2018-09-01T12:06:24.639Z,21.03
2018-09-01T12:07:32.097Z,21.23
2018-09-01T12:08:39.581Z,21.42
2018-09-01T12:09:47.067Z,21.56
2018-09-01T12:10:55.039Z,21.60
2018-09-01T12:12:01.995Z,21.57
2018-09-01T12:13:09.349Z,21.67
2018-09-01T12:14:17.238Z,21.80
2018-09-01T12:15:24.280Z,21.76
2018-09-01T12:16:31.614Z,21.76
2018-09-01T12:17:39.071Z,21.82
2018-09-01T12:18:46.533Z,21.96
2018-09-01T12:19:54.020Z,22.00
2018-09-01T12:21:01.506Z,21.91
2018-09-01T12:22:09.042Z,21.89
2018-09-01T12:23:16.481Z,21.91
2018-09-01T12:24:23.980Z,22.06
2018-09-01T12:25:31.988Z,22.13
2018-09-01T12:26:39.514Z,22.16
2018-09-01T12:27:46.536Z,22.16
2018-09-01T12:28:54.074Z,22.32
2018-09-01T12:30:01.607Z,22.49
2018-09-01T12:31:09.157Z,22.46
2018-09-01T12:32:17.195Z,22.41
2018-09-01T12:33:24.263Z,22.44
2018-09-01T12:34:31.837Z,22.52
2018-09-01T12:35:39.400Z,22.47
2018-09-01T12:36:46.948Z,22.31
2018-09-01T12:37:54.516Z,22.23
2018-09-01T12:39:02.581Z,22.19
2018-09-01T12:40:09.656Z,22.17
2018-09-01T12:41:17.221Z,22.11
2018-09-01T12:42:24.781Z,22.18
2018-09-01T12:43:32.347Z,22.18
2018-09-01T12:44:39.904Z,22.23
2018-09-01T12:45:47.465Z,22.18
2018-09-01T12:46:55.042Z,22.16
2018-09-01T12:48:02.614Z,22.18
2018-09-01T12:49:10.179Z,22.08
2018-09-01T12:50:17.736Z,21.97
2018-09-01T12:51:25.299Z,22.02
2018-09-01T12:52:32.839Z,22.10
2018-09-01T12:53:40.386Z,22.10
2018-09-01T12:54:48.434Z,22.17
2018-09-01T12:55:55.491Z,22.27
2018-09-01T12:57:03.030Z,22.36
2018-09-01T12:58:10.590Z,22.46
2018-09-01T12:59:18.152Z,22.57
2018-09-01T13:00:26.271Z,22.42
2018-09-01T13:01:33.264Z,22.40
2018-09-01T13:02:40.828Z,22.54
2018-09-01T13:03:48.369Z,22.56
2018-09-01T13:04:55.937Z,22.55
2018-09-01T13:06:03.472Z,22.43
2018-09-01T13:07:11.016Z,22.46
2018-09-01T13:08:19.037Z,22.43
2018-09-01T13:09:26.083Z,22.44
2018-09-01T13:10:33.608Z,22.48
2018-09-01T13:11:41.118Z,22.45
2018-09-01T13:12:48.640Z,22.35
2018-09-01T13:13:56.280Z,22.38
2018-09-01T13:15:03.687Z,22.36
2018-09-01T13:16:11.194Z,22.43
2018-09-01T13:17:18.718Z,22.50
2018-09-01T13:18:26.741Z,22.47
2018-09-01T13:19:33.754Z,22.42
2018-09-01T13:20:41.269Z,22.40
2018-09-01T13:21:48.776Z,22.21
2018-09-01T13:22:56.290Z,21.98
2018-09-01T13:24:03.795Z,21.87
2018-09-01T13:25:11.345Z,21.79
2018-09-01T13:26:18.841Z,21.94
2018-09-01T13:27:26.311Z,22.26
2018-09-01T13:28:33.799Z,22.48
2018-09-01T13:29:41.308Z,22.47
2018-09-01T13:30:49.280Z,22.53
2018-09-01T13:31:56.780Z,22.68
2018-09-01T13:33:03.793Z,22.81
2018-09-01T13:34:11.271Z,22.75
2018-09-01T13:35:18.776Z,22.70
2018-09-01T13:36:27.240Z,22.81
2018-09-01T13:37:33.726Z,22.92
2018-09-01T13:38:41.222Z,23.04
2018-09-01T13:39:48.722Z,23.18
2018-09-01T13:40:56.222Z,23.38
2018-09-01T13:42:03.712Z,23.45
2018-09-01T13:43:11.214Z,23.39
2018-09-01T13:44:18.720Z,23.46
2018-09-01T13:45:26.318Z,23.53
2018-09-01T13:46:33.738Z,23.33
2018-09-01T13:47:41.727Z,23.23
2018-09-01T13:48:48.725Z,23.16
2018-09-01T13:49:56.724Z,23.26
2018-09-01T13:51:03.691Z,23.31
2018-09-01T13:52:11.654Z,23.30
2018-09-01T13:53:18.599Z,23.10
2018-09-01T13:54:26.044Z,22.96
2018-09-01T13:55:33.492Z,22.91
2018-09-01T13:56:40.908Z,22.84
2018-09-01T13:57:48.359Z,22.95
2018-09-01T13:58:55.820Z,22.99
2018-09-01T14:00:03.269Z,23.20
2018-09-01T14:01:10.757Z,23.22
2018-09-01T14:02:18.222Z,23.23
2018-09-01T14:03:25.711Z,23.32
2018-09-01T14:04:33.711Z,23.35
2018-09-01T14:05:40.733Z,23.17
2018-09-01T14:06:48.237Z,23.12
2018-09-01T14:07:55.769Z,23.17
2018-09-01T14:09:03.263Z,23.19
2018-09-01T14:10:10.774Z,23.32
2018-09-01T14:11:18.293Z,23.42
2018-09-01T14:12:25.829Z,23.40
2018-09-01T14:13:33.352Z,23.46
2018-09-01T14:14:41.076Z,23.58
2018-09-01T14:15:48.451Z,23.59
2018-09-01T14:16:55.982Z,23.62
2018-09-01T14:18:03.544Z,23.46